Time;durP1;ratioP1;P1;durP2;ratioP2;P2;SDS_P1;SDS_P2;PMS_P1;PMS_P2;Temp;Humidity;BMP_temperature;BMP_pressure;BME280_temperature;BME280_humidity;BME280_pressure;Samples;Min_cycle;Max_cycle;Signal;HPM_P1;HPM_P2
2023/09/15 00:00:37;;;;;;;10.93;6.45;;;;;;;21.60;71.33;100711.94;5461963;32;34073;-71
2023/09/15 00:03:40;;;;;;;8.38;5.60;;;;;;;21.74;70.71;100719.69;5453848;32;33960;-69
2023/09/15 00:06:46;;;;;;;;;;;;;;;22.32;68.52;100719.47;5456462;32;33992;-67
2023/09/15 00:09:49;;;;;;;10.32;5.97;;;;;;;22.02;69.89;100720.12;5453577;32;35280;-68
2023/09/15 00:12:51;;;;;;;9.95;5.62;;;;;;;21.69;71.45;100724.56;5453359;32;33990;-71
2023/09/15 00:15:54;;;;;;;12.05;6.47;;;;;;;21.74;70.78;100717.03;5458317;32;34067;-72
2023/09/15 00:18:56;;;;;;;10.75;5.53;;;;;;;21.55;71.36;100720.31;5453345;32;34132;-71
2023/09/15 00:21:59;;;;;;;11.82;5.18;;;;;;;22.43;67.77;100719.44;5455424;32;35191;-68
2023/09/15 00:25:02;;;;;;;10.57;5.93;;;;;;;22.59;67.24;100717.16;5457019;32;35194;-69
2023/09/15 00:28:04;;;;;;;11.30;5.53;;;;;;;22.06;69.56;100716.22;5452932;32;33287;-70
2023/09/15 00:31:06;;;;;;;;;;;;;;;21.64;70.77;100726.78;5456046;32;35431;-68
2023/09/15 00:34:09;;;;;;;11.23;6.57;;;;;;;21.68;70.95;100730.03;5452427;32;34620;-70
2023/09/15 00:37:11;;;;;;;10.75;5.85;;;;;;;21.78;70.76;100729.19;5451047;32;33842;-71
2023/09/15 00:40:15;;;;;;;10.52;5.53;;;;;;;21.81;70.44;100733.44;5454722;32;34400;-70
2023/09/15 00:43:17;;;;;;;9.90;6.25;;;;;;;21.73;70.60;100734.06;5452609;32;33895;-68
2023/09/15 00:46:20;;;;;;;10.48;6.35;;;;;;;21.76;70.51;100735.63;5448601;32;34135;-67
2023/09/15 00:49:22;;;;;;;;;;;;;;;21.62;70.82;100744.75;5459404;32;34998;-68
2023/09/15 00:52:25;;;;;;;12.40;6.73;;;;;;;22.11;68.55;100744.34;5445551;32;35508;-67
2023/09/15 00:55:33;;;;;;;11.27;6.55;;;;;;;22.06;68.63;100751.87;5449082;32;33931;-70
2023/09/15 00:58:39;;;;;;;8.45;5.60;;;;;;;21.62;70.65;100740.25;5462776;32;35407;-71
2023/09/15 01:01:42;;;;;;;9.77;5.87;;;;;;;20.97;74.18;100753.41;5454771;32;35230;-69
2023/09/15 01:04:45;;;;;;;10.15;5.78;;;;;;;21.45;70.68;100742.59;5453136;32;34153;-69
2023/09/15 01:07:52;;;;;;;9.38;5.85;;;;;;;21.22;71.60;100744.34;5440605;32;34243;-70
2023/09/15 01:10:55;;;;;;;8.63;5.03;;;;;;;21.32;70.86;100748.91;5454505;32;34901;-70
2023/09/15 01:13:57;;;;;;;8.45;5.20;;;;;;;20.88;72.60;100738.09;5458760;32;33928;-68
2023/09/15 01:17:19;;;;;;;9.45;4.60;;;;;;;20.98;71.64;100739.06;5448179;32;37341;-68
2023/09/15 01:20:45;;;;;;;7.53;4.57;;;;;;;20.78;71.98;100746.78;5449182;32;33910;-68
2023/09/15 01:23:58;;;;;;;8.50;4.62;;;;;;;20.70;71.64;100759.03;5449794;32;34176;-70
2023/09/15 01:27:25;;;;;;;7.90;5.00;;;;;;;20.53;70.77;100763.81;5450028;32;35816;-67
2023/09/15 01:30:30;;;;;;;7.25;4.45;;;;;;;20.25;71.89;100764.12;5456616;32;35449;-68
2023/09/15 01:33:32;;;;;;;8.30;4.90;;;;;;;20.37;70.76;100760.56;5448527;32;33920;-70
2023/09/15 01:36:34;;;;;;;8.43;5.22;;;;;;;20.77;68.89;100757.59;5459403;32;34351;-68
2023/09/15 01:39:37;;;;;;;8.82;5.22;;;;;;;21.29;66.46;100759.81;5459398;32;34100;-70
2023/09/15 01:42:41;;;;;;;10.13;5.35;;;;;;;20.46;70.87;100753.69;5456538;32;34051;-67
2023/09/15 01:45:44;;;;;;;9.27;5.22;;;;;;;20.69;69.20;100760.84;5453452;32;34177;-70
2023/09/15 01:48:47;;;;;;;8.43;5.32;;;;;;;20.16;72.26;100770.16;5455210;32;34001;-68
2023/09/15 01:51:50;;;;;;;8.65;5.30;;;;;;;19.93;74.24;100775.31;5455949;32;34900;-67
2023/09/15 01:54:54;;;;;;;10.20;5.43;;;;;;;21.05;69.48;100759.84;5453269;32;35079;-70
2023/09/15 01:57:57;;;;;;;8.93;5.32;;;;;;;20.34;72.82;100776.78;5461119;32;34073;-70
2023/09/15 02:01:00;;;;;;;10.48;5.20;;;;;;;20.08;74.85;100773.34;5455927;32;34058;-67
2023/09/15 02:04:03;;;;;;;9.97;5.40;;;;;;;20.15;75.64;100779.09;5455013;32;33786;-68
2023/09/15 02:07:07;;;;;;;9.30;5.07;;;;;;;20.37;73.71;100768.56;5455049;32;34952;-67
2023/09/15 02:10:10;;;;;;;9.43;5.18;;;;;;;20.49;73.37;100775.69;5457486;32;34928;-70
2023/09/15 02:13:12;;;;;;;8.82;5.05;;;;;;;19.80;76.65;100777.16;5459086;32;34392;-68
2023/09/15 02:16:15;;;;;;;8.15;5.05;;;;;;;20.02;75.72;100774.66;5441432;32;264451;-68
2023/09/15 02:19:18;;;;;;;8.60;4.85;;;;;;;20.48;74.57;100771.31;5462424;32;34580;-69
2023/09/15 02:22:21;;;;;;;9.35;4.82;;;;;;;20.29;74.61;100773.63;5455450;32;35286;-67
2023/09/15 02:25:23;;;;;;;13.27;5.10;;;;;;;19.98;76.31;100777.66;5445935;32;33161;-70
2023/09/15 02:28:26;;;;;;;8.85;4.43;;;;;;;19.84;77.81;100777.81;5451709;32;34247;-71
2023/09/15 02:31:30;;;;;;;10.05;5.40;;;;;;;20.05;77.72;100776.25;5443455;32;34097;-67
2023/09/15 02:34:32;;;;;;;9.57;4.93;;;;;;;19.94;77.48;100786.84;5455373;32;35353;-68
2023/09/15 02:37:35;;;;;;;9.13;5.12;;;;;;;19.41;81.22;100780.81;5447530;32;34807;-68
2023/09/15 02:40:37;;;;;;;9.05;5.45;;;;;;;19.35;82.45;100774.06;5457505;32;35257;-69
2023/09/15 02:43:40;;;;;;;9.45;5.72;;;;;;;20.06;78.98;100782.44;5455108;32;34021;-68
2023/09/15 02:46:42;;;;;;;10.00;5.45;;;;;;;20.09;79.50;100775.06;5444456;32;34109;-68
2023/09/15 02:49:45;;;;;;;10.30;6.37;;;;;;;20.01;79.35;100778.28;5454002;32;34244;-68
2023/09/15 02:52:48;;;;;;;12.25;6.78;;;;;;;19.20;83.29;100770.66;5445893;32;34029;-69
2023/09/15 02:55:59;;;;;;;11.98;6.75;;;;;;;19.79;81.12;100772.78;5451517;32;34092;-72
2023/09/15 02:59:02;;;;;;;10.52;6.82;;;;;;;19.32;83.02;100781.41;5453981;32;33760;-69
2023/09/15 03:02:12;;;;;;;13.73;7.53;;;;;;;19.35;82.45;100784.75;5457425;32;34151;-70
2023/09/15 03:05:14;;;;;;;12.25;6.75;;;;;;;19.49;81.07;100787.28;5451223;32;35391;-70
2023/09/15 03:08:16;;;;;;;11.20;6.72;;;;;;;18.88;84.03;100780.84;5455080;32;34070;-70
2023/09/15 03:11:19;;;;;;;10.85;6.68;;;;;;;19.28;81.86;100783.47;5448705;32;34027;-68
2023/09/15 03:14:21;;;;;;;10.73;6.35;;;;;;;19.75;80.30;100788.16;5456825;32;34240;-71
2023/09/15 03:17:24;;;;;;;12.05;7.45;;;;;;;20.15;76.21;100785.28;5459188;32;34501;-68
2023/09/15 03:20:27;;;;;;;12.90;8.38;;;;;;;19.53;78.96;100785.28;5458920;32;35350;-71
2023/09/15 03:23:30;;;;;;;12.55;7.57;;;;;;;19.74;78.85;100783.78;5455806;32;35197;-67
2023/09/15 03:26:32;;;;;;;12.82;8.43;;;;;;;19.58;80.15;100787.62;5456756;32;34044;-68
2023/09/15 03:29:35;;;;;;;16.05;7.70;;;;;;;20.16;75.85;100792.34;5451367;32;35035;-68
2023/09/15 03:32:37;;;;;;;11.00;7.07;;;;;;;19.60;78.76;100791.06;5460068;32;35187;-70
2023/09/15 03:35:40;;;;;;;12.30;7.07;;;;;;;20.28;75.99;100786.09;5455380;32;34230;-68
2023/09/15 03:38:42;;;;;;;12.82;7.87;;;;;;;19.31;79.58;100791.22;5459987;32;33938;-68
2023/09/15 03:41:45;;;;;;;13.23;6.57;;;;;;;19.01;81.37;100796.00;5454740;32;35103;-70
2023/09/15 03:44:47;;;;;;;11.35;6.87;;;;;;;19.54;78.67;100788.78;5459328;32;34059;-68
2023/09/15 03:47:50;;;;;;;11.52;6.65;;;;;;;19.26;80.28;100780.06;5450236;32;34169;-67
2023/09/15 03:50:52;;;;;;;10.63;6.37;;;;;;;19.17;80.49;100781.53;5443335;32;35137;-70
2023/09/15 03:53:55;;;;;;;11.43;6.20;;;;;;;20.22;75.56;100791.03;5458018;32;34982;-67
2023/09/15 03:56:57;;;;;;;12.75;6.75;;;;;;;19.45;78.81;100799.16;5450221;32;33919;-70
2023/09/15 04:00:00;;;;;;;11.43;6.18;;;;;;;19.60;78.11;100794.56;5462687;32;33982;-69
2023/09/15 04:03:04;;;;;;;11.50;6.80;;;;;;;19.58;77.72;100790.28;5450761;32;34033;-67
2023/09/15 04:06:06;;;;;;;15.57;6.87;;;;;;;19.28;80.31;100799.44;5457674;32;35273;-71
2023/09/15 04:09:15;;;;;;;10.98;7.22;;;;;;;19.82;76.48;100804.56;5463990;32;34190;-69
2023/09/15 04:12:17;;;;;;;12.80;7.00;;;;;;;19.03;81.64;100805.59;5454155;32;34208;-70
2023/09/15 04:15:20;;;;;;;15.27;8.77;;;;;;;19.16;80.97;100805.63;5458801;32;34160;-68
2023/09/15 04:18:22;;;;;;;14.10;6.75;;;;;;;20.47;74.55;100800.78;5452227;32;34092;-70
2023/09/15 04:21:25;;;;;;;11.93;6.30;;;;;;;20.28;74.54;100818.12;5448857;32;34637;-71
2023/09/15 04:24:27;;;;;;;16.98;7.28;;;;;;;20.08;76.92;100820.53;5453536;32;34082;-69
2023/09/15 04:27:32;;;;;;;17.05;7.47;;;;;;;20.22;74.90;100817.72;5456284;32;34069;-69
2023/09/15 04:30:34;;;;;;;9.65;6.05;;;;;;;20.04;75.77;100811.06;5457143;32;34197;-67
2023/09/15 04:33:37;;;;;;;12.10;6.43;;;;;;;20.16;75.83;100818.19;5446008;32;34096;-72
2023/09/15 04:36:39;;;;;;;14.75;6.78;;;;;;;20.86;71.63;100801.44;5458175;32;34460;-69
2023/09/15 04:39:41;;;;;;;12.93;7.53;;;;;;;19.87;76.03;100815.78;5456529;32;34077;-72
2023/09/15 04:42:45;;;;;;;12.45;6.93;;;;;;;19.94;75.08;100806.37;5456534;32;34262;-68
2023/09/15 04:45:47;;;;;;;9.40;6.05;;;;;;;20.45;72.21;100798.25;5445477;32;35192;-72
2023/09/15 04:48:50;;;;;;;;;;;;;;;20.42;71.44;100813.63;5447822;32;35476;-68
2023/09/15 04:51:52;;;;;;;9.57;5.75;;;;;;;19.98;73.73;100804.34;5451898;32;35473;-68
2023/09/15 04:54:55;;;;;;;9.90;6.10;;;;;;;20.64;71.29;100811.09;5445432;32;33962;-70
2023/09/15 04:57:58;;;;;;;15.73;6.72;;;;;;;20.60;70.80;100806.06;5453631;32;34036;-67
2023/09/15 05:01:03;;;;;;;13.30;6.07;;;;;;;20.50;71.56;100798.75;5449611;32;34301;-67
2023/09/15 05:04:06;;;;;;;10.93;5.62;;;;;;;20.39;72.67;100804.00;5457055;32;34118;-70
2023/09/15 05:07:12;;;;;;;13.50;6.85;;;;;;;21.27;69.53;100792.97;5447603;32;34145;-71
2023/09/15 05:10:14;;;;;;;16.60;7.00;;;;;;;21.14;69.32;100801.06;5456833;32;34161;-69
2023/09/15 05:13:18;;;;;;;10.27;6.78;;;;;;;20.95;70.28;100812.31;5462034;32;34051;-71
2023/09/15 05:16:20;;;;;;;12.48;6.43;;;;;;;21.71;68.18;100797.53;5444542;32;35828;-69
2023/09/15 05:19:22;;;;;;;;;;;;;;;22.46;64.66;100806.69;5457367;32;34774;-69
2023/09/15 05:22:25;;;;;;;22.13;9.57;;;;;;;23.04;61.63;100799.19;5448233;32;34723;-68
2023/09/15 05:25:27;;;;;;;11.15;6.80;;;;;;;24.46;56.86;100810.88;5457629;32;34099;-67
2023/09/15 05:28:29;;;;;;;13.07;5.72;;;;;;;24.72;55.61;100814.72;5455309;32;34200;-70
2023/09/15 05:31:31;;;;;;;;;;;;;;;25.50;53.53;100815.50;5438853;32;34090;-68
2023/09/15 05:34:34;;;;;;;9.52;5.65;;;;;;;26.48;50.24;100815.97;5452033;32;33114;-70
2023/09/15 05:37:36;;;;;;;9.48;5.25;;;;;;;25.13;54.15;100815.47;5449882;32;35308;-68
2023/09/15 05:40:38;;;;;;;12.20;6.85;;;;;;;26.53;49.99;100814.50;5448523;32;35327;-71
2023/09/15 05:43:40;;;;;;;;;;;;;;;25.11;53.71;100817.44;5457238;32;35241;-71
2023/09/15 05:46:43;;;;;;;20.23;11.75;;;;;;;23.65;58.38;100818.94;5457152;32;34191;-67
2023/09/15 05:49:45;;;;;;;15.07;8.13;;;;;;;23.27;60.32;100819.53;5447761;32;35242;-67
2023/09/15 05:52:47;;;;;;;17.73;7.10;;;;;;;22.58;62.56;100825.28;5450959;32;34176;-66
2023/09/15 05:55:49;;;;;;;11.85;7.35;;;;;;;22.59;62.98;100823.44;5451047;32;34259;-68
2023/09/15 05:58:52;;;;;;;11.10;6.55;;;;;;;22.07;64.46;100825.00;5453439;32;34105;-69
2023/09/15 06:01:55;;;;;;;13.27;7.00;;;;;;;22.41;62.92;100825.81;5455352;32;34298;-68
2023/09/15 06:04:59;;;;;;;23.83;8.90;;;;;;;22.81;60.63;100833.25;5458353;32;34172;-67
2023/09/15 06:08:03;;;;;;;13.85;8.15;;;;;;;22.44;62.97;100837.13;5451441;32;33930;-66
2023/09/15 06:11:06;;;;;;;;;;;;;;;23.27;60.08;100824.03;5453137;32;35339;-66
2023/09/15 06:14:08;;;;;;;11.32;7.72;;;;;;;25.06;54.97;100820.56;5460707;32;34298;-66
2023/09/15 06:17:12;;;;;;;12.60;7.25;;;;;;;24.95;54.69;100817.13;5455799;32;34399;-66
2023/09/15 06:20:17;;;;;;;13.25;7.15;;;;;;;25.01;53.65;100821.94;5454288;32;33939;-68
2023/09/15 06:23:19;;;;;;;17.52;8.18;;;;;;;25.93;51.31;100828.41;5456196;32;36912;-68
2023/09/15 06:26:21;;;;;;;12.18;6.20;;;;;;;26.67;49.20;100827.47;5452444;32;34064;-68
2023/09/15 06:29:24;;;;;;;10.07;6.70;;;;;;;26.47;48.83;100831.31;5455421;32;35917;-67
2023/09/15 06:32:26;;;;;;;13.02;6.78;;;;;;;24.53;53.80;100842.41;5461990;32;34946;-68
2023/09/15 06:35:28;;;;;;;20.52;7.53;;;;;;;25.11;52.72;100831.72;5456987;32;35244;-71
2023/09/15 06:38:33;;;;;;;8.75;5.50;;;;;;;25.71;49.59;100833.31;5462596;32;34136;-69
2023/09/15 06:41:36;;;;;;;13.70;6.03;;;;;;;26.22;48.47;100840.91;5455743;32;34007;-67
2023/09/15 06:44:38;;;;;;;10.68;5.85;;;;;;;25.91;49.07;100841.19;5457396;32;34141;-67
2023/09/15 06:47:40;;;;;;;;;;;;;;;26.23;48.24;100839.06;5456146;32;35325;-66
2023/09/15 06:50:42;;;;;;;10.23;5.25;;;;;;;26.11;48.40;100831.19;5456699;32;34363;-67
2023/09/15 06:53:45;;;;;;;12.90;5.03;;;;;;;26.55;46.83;100834.06;5460159;32;33984;-67
2023/09/15 06:56:50;;;;;;;17.62;6.05;;;;;;;27.52;44.60;100834.09;5461522;32;34921;-67
2023/09/15 06:59:52;;;;;;;10.35;5.47;;;;;;;26.32;47.64;100828.22;5456447;32;34121;-67
2023/09/15 07:02:55;;;;;;;9.95;4.60;;;;;;;25.77;48.74;100827.37;5457133;32;35329;-68
2023/09/15 07:05:57;;;;;;;14.65;5.18;;;;;;;26.10;47.39;100825.94;5442767;32;34183;-69
2023/09/15 07:08:59;;;;;;;7.12;4.00;;;;;;;27.82;43.10;100823.81;5461920;32;37564;-67
2023/09/15 07:12:02;;;;;;;7.45;4.47;;;;;;;29.80;38.07;100820.19;5457659;32;34043;-66
2023/09/15 07:15:05;;;;;;;7.97;4.70;;;;;;;30.37;36.65;100814.53;5463657;32;36645;-68
2023/09/15 07:18:07;;;;;;;8.48;5.18;;;;;;;29.38;38.35;100823.16;5454120;32;34175;-70
2023/09/15 07:21:10;;;;;;;9.00;4.55;;;;;;;27.82;41.90;100829.19;5457606;32;35354;-68
2023/09/15 07:24:12;;;;;;;7.97;4.47;;;;;;;27.22;42.75;100829.97;5462346;32;34183;-71
2023/09/15 07:27:15;;;;;;;7.25;4.15;;;;;;;27.26;42.81;100831.38;5464923;32;34334;-66
2023/09/15 07:30:17;;;;;;;8.90;5.90;;;;;;;29.72;37.64;100827.50;5463723;32;34239;-68
2023/09/15 07:33:19;;;;;;;9.30;4.62;;;;;;;28.63;39.01;100834.09;5452317;32;34088;-68
2023/09/15 07:36:24;;;;;;;11.48;4.90;;;;;;;28.11;41.04;100841.50;5450718;32;34219;-66
2023/09/15 07:39:29;;;;;;;5.93;4.30;;;;;;;27.80;41.92;100832.06;5452068;32;35247;-68
2023/09/15 07:42:31;;;;;;;7.10;4.20;;;;;;;28.43;40.68;100838.09;5449696;32;35029;-68
2023/09/15 07:45:34;;;;;;;7.05;3.50;;;;;;;28.74;39.86;100838.34;5452438;32;34126;-70
2023/09/15 07:48:36;;;;;;;6.62;3.60;;;;;;;30.03;36.46;100841.13;5460086;32;34926;-69
2023/09/15 07:51:39;;;;;;;8.65;3.92;;;;;;;28.64;38.38;100840.34;5454566;32;34131;-67
2023/09/15 07:54:41;;;;;;;8.00;3.17;;;;;;;31.25;33.46;100837.69;5458479;32;34168;-68
2023/09/15 07:57:43;;;;;;;5.62;3.15;;;;;;;29.27;36.39;100843.28;5458909;32;34252;-68
2023/09/15 08:00:46;;;;;;;5.75;3.58;;;;;;;30.39;34.03;100834.16;5451493;32;33977;-69
2023/09/15 08:03:48;;;;;;;10.90;3.42;;;;;;;29.03;36.59;100841.41;5462010;32;35410;-71
2023/09/15 08:06:52;;;;;;;5.18;2.87;;;;;;;31.24;32.42;100828.72;5454550;32;34105;-69
2023/09/15 08:09:56;;;;;;;7.62;2.90;;;;;;;29.52;35.92;100836.00;5463864;32;34281;-69
2023/09/15 08:12:58;;;;;;;5.70;3.00;;;;;;;29.67;35.14;100828.00;5452597;32;34186;-69
2023/09/15 08:16:01;;;;;;;4.30;2.58;;;;;;;28.88;37.25;100834.97;5456754;32;34238;-69
2023/09/15 08:19:03;;;;;;;9.13;2.75;;;;;;;29.03;36.27;100830.59;5456897;32;34150;-71
2023/09/15 08:22:06;;;;;;;4.93;2.60;;;;;;;30.94;32.33;100822.31;5452441;32;35785;-71
2023/09/15 08:25:10;;;;;;;5.95;2.50;;;;;;;30.02;33.39;100817.75;5465459;32;35289;-71
2023/09/15 08:28:13;;;;;;;4.28;2.60;;;;;;;31.36;30.91;100810.06;5456063;32;37305;-72
2023/09/15 08:31:15;;;;;;;4.22;2.67;;;;;;;29.76;34.09;100815.31;5458069;32;36082;-70
2023/09/15 08:34:18;;;;;;;4.80;2.97;;;;;;;29.97;32.77;100815.56;5465099;32;35493;-71
2023/09/15 08:37:20;;;;;;;6.97;2.95;;;;;;;30.38;32.36;100818.09;5459193;32;35175;-70
2023/09/15 08:40:22;;;;;;;9.45;3.35;;;;;;;31.83;30.31;100814.34;5456331;32;33228;-69
2023/09/15 08:43:29;;;;;;;6.90;3.55;;;;;;;29.31;34.94;100822.16;5459892;32;34012;-70
2023/09/15 08:46:35;;;;;;;5.50;3.30;;;;;;;30.05;33.85;100810.09;5450466;32;34331;-70
2023/09/15 08:49:38;;;;;;;5.25;2.95;;;;;;;33.85;27.53;100794.94;5461467;32;34120;-70
2023/09/15 08:52:40;;;;;;;5.80;2.35;;;;;;;33.63;27.15;100798.81;5458645;32;33110;-70
2023/09/15 08:55:42;;;;;;;4.28;2.37;;;;;;;33.52;26.84;100800.22;5459219;32;34107;-71
2023/09/15 08:58:45;;;;;;;3.95;2.30;;;;;;;32.91;27.55;100809.97;5460385;32;34035;-70
2023/09/15 09:01:51;;;;;;;5.30;3.00;;;;;;;34.87;25.04;100804.94;5460473;32;34663;-70
2023/09/15 09:04:53;;;;;;;5.72;2.70;;;;;;;32.31;29.28;100807.41;5454910;32;34773;-74
2023/09/15 09:07:57;;;;;;;4.47;2.90;;;;;;;31.82;29.58;100809.97;5465393;32;33696;-74
2023/09/15 09:10:59;;;;;;;7.00;3.05;;;;;;;34.21;26.24;100802.06;5465664;32;35315;-70
2023/09/15 09:14:04;;;;;;;6.32;3.40;;;;;;;34.96;25.77;100800.97;5467986;32;35275;-72
2023/09/15 09:17:08;;;;;;;4.32;2.80;;;;;;;33.59;27.56;100803.81;5464255;32;32937;-72
2023/09/15 09:20:25;;;;;;;4.45;2.42;;;;;;;30.69;32.11;100808.09;5463195;32;34114;-70
2023/09/15 09:23:27;;;;;;;4.68;2.60;;;;;;;32.76;29.17;100810.84;5453229;32;33962;-70
2023/09/15 09:26:29;;;;;;;5.62;3.10;;;;;;;33.96;26.78;100795.47;5462638;32;34220;-70
2023/09/15 09:29:32;;;;;;;6.40;3.28;;;;;;;31.81;30.07;100810.97;5459908;32;35515;-72
2023/09/15 09:32:37;;;;;;;6.28;3.85;;;;;;;33.97;27.29;100805.31;5461475;32;34051;-70
2023/09/15 09:35:40;;;;;;;6.20;3.70;;;;;;;35.08;25.60;100798.47;5460486;32;35457;-72
2023/09/15 09:38:44;;;;;;;4.93;2.60;;;;;;;34.22;26.07;100799.13;5465856;32;34209;-71
2023/09/15 09:41:47;;;;;;;10.30;3.35;;;;;;;35.76;24.64;100792.72;5455441;32;34438;-71
2023/09/15 09:44:51;;;;;;;6.37;3.03;;;;;;;35.21;25.03;100800.34;5455147;32;34127;-72
2023/09/15 09:47:55;;;;;;;5.68;2.90;;;;;;;33.25;27.85;100796.44;5457733;32;34138;-71
2023/09/15 09:50:57;;;;;;;4.65;2.65;;;;;;;33.92;26.84;100798.56;5462822;32;34228;-70
2023/09/15 09:54:00;;;;;;;5.37;2.53;;;;;;;34.97;25.22;100793.63;5462324;32;34113;-72
2023/09/15 09:57:03;;;;;;;5.93;2.60;;;;;;;33.83;27.11;100794.31;5457138;32;34033;-71
2023/09/15 10:00:09;;;;;;;4.45;2.55;;;;;;;36.68;23.45;100790.59;5461246;32;35771;-71
2023/09/15 10:03:12;;;;;;;3.40;2.55;;;;;;;34.60;25.80;100798.63;5458621;32;34103;-72
2023/09/15 10:06:14;;;;;;;4.37;2.33;;;;;;;35.27;24.87;100788.56;5459796;32;34076;-71
2023/09/15 10:09:18;;;;;;;3.00;2.08;;;;;;;35.26;25.32;100795.09;5467075;32;35435;-72
2023/09/15 10:12:20;;;;;;;3.22;2.12;;;;;;;36.58;22.50;100793.81;5460824;32;34563;-71
2023/09/15 10:15:23;;;;;;;2.45;2.00;;;;;;;38.56;20.49;100790.91;5465329;32;35547;-72
2023/09/15 10:18:25;;;;;;;3.22;2.28;;;;;;;36.10;22.75;100794.28;5456242;32;34160;-71
2023/09/15 10:21:28;;;;;;;5.15;2.60;;;;;;;34.78;24.95;100792.56;5454309;32;34087;-71
2023/09/15 10:24:31;;;;;;;8.77;2.90;;;;;;;33.64;26.58;100795.06;5458985;32;35636;-70
2023/09/15 10:27:33;;;;;;;6.00;2.70;;;;;;;34.37;25.97;100796.22;5455783;32;34103;-71
2023/09/15 10:30:37;;;;;;;6.22;2.58;;;;;;;33.31;27.14;100789.37;5458541;32;33978;-70
2023/09/15 10:33:40;;;;;;;3.28;2.30;;;;;;;34.80;24.50;100785.00;5456524;32;34118;-73
2023/09/15 10:36:43;;;;;;;5.10;2.30;;;;;;;31.91;27.85;100797.94;5462775;32;35880;-71
2023/09/15 10:39:59;;;;;;;4.37;2.45;;;;;;;32.28;26.93;100794.22;5454146;32;34014;-72
2023/09/15 10:43:07;;;;;;;5.03;2.90;;;;;;;30.36;30.21;100793.03;5445820;32;34053;-70
2023/09/15 10:46:09;;;;;;;3.25;2.45;;;;;;;29.72;30.81;100792.28;5451140;32;34229;-69
2023/09/15 10:49:20;;;;;;;5.00;2.78;;;;;;;30.13;30.10;100784.84;5454932;32;34147;-70
2023/09/15 10:52:36;;;;;;;4.72;2.70;;;;;;;28.93;32.82;100789.34;5460876;32;34181;-70
2023/09/15 10:55:39;;;;;;;4.35;2.22;;;;;;;29.14;32.14;100784.25;5447572;32;34387;-73
2023/09/15 10:58:42;;;;;;;4.07;2.60;;;;;;;29.51;31.12;100782.87;5458503;32;34263;-70
2023/09/15 11:01:45;;;;;;;5.60;2.70;;;;;;;30.31;30.48;100782.72;5453212;32;34159;-69
2023/09/15 11:04:48;;;;;;;3.45;2.22;;;;;;;30.23;30.36;100777.34;5454326;32;33874;-71
2023/09/15 11:07:50;;;;;;;7.03;2.20;;;;;;;29.35;31.77;100785.56;5458785;32;34151;-72
2023/09/15 11:10:59;;;;;;;7.07;2.40;;;;;;;28.98;32.29;100773.47;5452286;32;35376;-70
2023/09/15 11:14:01;;;;;;;4.25;2.50;;;;;;;28.78;33.34;100785.59;5463125;32;33942;-69
2023/09/15 11:17:04;;;;;;;4.07;2.00;;;;;;;29.59;31.42;100772.00;5458644;32;34504;-71
2023/09/15 11:20:06;;;;;;;4.07;2.30;;;;;;;30.02;30.44;100779.81;5456681;32;34562;-71
2023/09/15 11:23:09;;;;;;;4.22;2.08;;;;;;;29.56;31.13;100777.78;5456589;32;34218;-72
2023/09/15 11:26:11;;;;;;;5.47;2.42;;;;;;;28.95;32.15;100778.34;5460951;32;35424;-71
2023/09/15 11:29:32;;;;;;;4.32;2.40;;;;;;;31.31;28.80;100763.63;5459790;32;33997;-71
2023/09/15 11:32:35;;;;;;;9.43;2.90;;;;;;;33.18;26.02;100757.44;5456903;32;34112;-71
2023/09/15 11:35:37;;;;;;;6.00;2.50;;;;;;;33.90;25.28;100758.91;5456229;32;35459;-70
2023/09/15 11:38:39;;;;;;;7.53;2.50;;;;;;;32.29;28.02;100762.44;5462519;32;35616;-70
2023/09/15 11:42:04;;;;;;;10.00;6.43;;;;;;;30.56;30.91;100756.28;5464030;32;35380;-70
2023/09/15 11:45:09;;;;;;;5.32;2.37;;;;;;;29.38;33.01;100760.88;5467695;32;35379;-70
2023/09/15 11:48:14;;;;;;;3.50;2.08;;;;;;;29.74;32.41;100758.56;5451901;32;34102;-70
2023/09/15 11:51:17;;;;;;;10.00;3.95;;;;;;;29.37;32.69;100757.31;5455927;32;33481;-70
2023/09/15 11:54:20;;;;;;;6.00;2.83;;;;;;;28.49;34.21;100762.59;5445778;32;35419;-71
2023/09/15 11:57:22;;;;;;;4.20;2.70;;;;;;;28.31;34.58;100759.19;5456114;32;35160;-70
2023/09/15 12:00:30;;;;;;;6.47;2.37;;;;;;;28.44;33.92;100761.38;5454931;32;35396;-72
2023/09/15 12:03:33;;;;;;;4.95;2.60;;;;;;;28.15;34.69;100753.72;5455894;32;34208;-71
2023/09/15 12:06:36;;;;;;;5.87;2.58;;;;;;;27.84;35.32;100756.97;5456539;32;34001;-72
2023/09/15 12:09:38;;;;;;;3.37;2.45;;;;;;;27.78;34.97;100753.06;5459412;32;33931;-70
2023/09/15 12:12:40;;;;;;;4.85;2.50;;;;;;;28.46;33.35;100752.09;5458876;32;35196;-71
2023/09/15 12:15:45;;;;;;;9.40;2.62;;;;;;;28.39;33.61;100748.38;5456316;32;34018;-72
2023/09/15 12:18:49;;;;;;;4.57;2.78;;;;;;;28.11;34.49;100746.94;5453613;32;36636;-71
2023/09/15 12:21:53;;;;;;;6.43;2.92;;;;;;;28.20;34.22;100745.94;5454777;32;34244;-71
2023/09/15 12:24:55;;;;;;;3.12;2.28;;;;;;;29.24;32.52;100734.50;5450631;32;34108;-71
2023/09/15 12:27:57;;;;;;;5.95;2.50;;;;;;;29.16;32.05;100726.41;5458245;32;33789;-71
2023/09/15 12:31:00;;;;;;;5.65;2.62;;;;;;;29.56;31.59;100723.62;5454880;32;35168;-70
2023/09/15 12:34:05;;;;;;;6.78;2.58;;;;;;;30.12;30.84;100720.81;5463864;32;34221;-71
2023/09/15 12:37:08;;;;;;;4.90;2.60;;;;;;;29.89;31.43;100718.06;5451165;32;35660;-71
2023/09/15 12:40:12;;;;;;;6.60;2.67;;;;;;;29.12;32.55;100720.50;5458647;32;33961;-70
2023/09/15 12:43:14;;;;;;;3.92;2.42;;;;;;;29.48;32.39;100711.94;5454569;32;35440;-72
2023/09/15 12:46:17;;;;;;;5.45;2.70;;;;;;;28.78;33.60;100717.97;5449573;32;33136;-70
2023/09/15 12:49:20;;;;;;;6.53;2.85;;;;;;;28.15;34.16;100716.72;5455634;32;34010;-70
2023/09/15 12:52:22;;;;;;;6.35;2.67;;;;;;;28.07;34.39;100719.38;5449808;32;34811;-70
2023/09/15 12:55:26;;;;;;;6.90;2.62;;;;;;;27.88;34.54;100712.41;5451537;32;34035;-71
2023/09/15 12:58:29;;;;;;;7.30;2.20;;;;;;;28.27;34.20;100714.53;5456263;32;33862;-71
2023/09/15 13:01:31;;;;;;;5.90;2.67;;;;;;;29.48;32.15;100703.81;5450326;32;35699;-70
2023/09/15 13:04:33;;;;;;;7.55;2.60;;;;;;;29.11;33.19;100703.44;5454589;32;34071;-70
2023/09/15 13:07:37;;;;;;;3.37;2.05;;;;;;;27.84;35.07;100711.06;5452080;32;35764;-70
2023/09/15 13:10:40;;;;;;;6.45;2.72;;;;;;;27.60;35.32;100709.09;5456589;32;34138;-70
2023/09/15 13:13:42;;;;;;;7.05;4.10;;;;;;;27.92;35.25;100707.53;5453025;32;35619;-71
2023/09/15 13:16:45;;;;;;;4.32;2.10;;;;;;;29.34;32.61;100692.69;5453943;32;34156;-74
2023/09/15 13:19:47;;;;;;;3.87;2.50;;;;;;;29.51;32.03;100700.75;5458805;32;35290;-70
2023/09/15 13:22:51;;;;;;;4.15;2.08;;;;;;;29.44;32.22;100692.50;5452786;32;34259;-71
2023/09/15 13:25:54;;;;;;;6.40;2.62;;;;;;;29.40;32.30;100688.44;5459034;32;35141;-72
2023/09/15 13:28:56;;;;;;;5.68;2.47;;;;;;;28.04;34.02;100698.97;5459427;32;33949;-70
2023/09/15 13:31:58;;;;;;;4.45;1.98;;;;;;;29.36;32.21;100684.37;5457434;32;34841;-70
2023/09/15 13:35:01;;;;;;;6.82;2.67;;;;;;;27.87;34.50;100697.22;5455182;32;34207;-71
2023/09/15 13:38:03;;;;;;;5.03;2.67;;;;;;;29.21;33.03;100681.56;5451243;32;34106;-70
2023/09/15 13:41:05;;;;;;;8.23;3.50;;;;;;;28.51;33.65;100687.56;5457053;32;35345;-70
2023/09/15 13:44:07;;;;;;;5.72;2.10;;;;;;;28.80;33.30;100683.50;5448947;32;35352;-70
2023/09/15 13:47:10;;;;;;;12.90;8.18;;;;;;;28.95;33.33;100672.84;5453352;32;35865;-71
2023/09/15 13:50:12;;;;;;;5.22;2.53;;;;;;;28.92;32.85;100667.75;5443323;32;35618;-70
2023/09/15 13:53:14;;;;;;;6.35;2.53;;;;;;;29.23;32.50;100667.84;5446007;32;34067;-70
2023/09/15 13:56:17;;;;;;;6.28;2.70;;;;;;;28.50;33.07;100671.50;5439717;32;35158;-70
2023/09/15 13:59:19;;;;;;;9.93;2.60;;;;;;;28.62;32.79;100672.00;5463963;32;34062;-72
2023/09/15 14:02:23;;;;;;;5.28;2.20;;;;;;;28.55;32.76;100659.19;5450704;32;33591;-71
2023/09/15 14:05:26;;;;;;;6.30;2.70;;;;;;;29.51;31.33;100658.31;5446941;32;34228;-71
2023/09/15 14:08:28;;;;;;;5.97;2.50;;;;;;;28.50;33.20;100660.69;5458180;32;34183;-70
2023/09/15 14:11:30;;;;;;;4.35;2.33;;;;;;;28.40;33.08;100660.84;5450570;32;34606;-70